Time;durP1;ratioP1;P1;durP2;ratioP2;P2;SDS_P1;SDS_P2;PMS_P1;PMS_P2;Temp;Humidity;BMP_temperature;BMP_pressure;BME280_temperature;BME280_humidity;BME280_pressure;Samples;Min_cycle;Max_cycle;Signal;HPM_P1;HPM_P2
2022/11/06 00:02:17;;;;;;;13.98;4.30;;;;;;;10.51;81.68;101498.53;4993610;28;20034;-65
2022/11/06 00:04:42;;;;;;;11.43;4.15;;;;;;;10.51;82.07;101503.66;5000861;28;20038;-65
2022/11/06 00:07:08;;;;;;;14.15;4.45;;;;;;;10.48;81.96;101504.41;4995652;28;20481;-65
2022/11/06 00:09:33;;;;;;;12.82;4.28;;;;;;;10.49;82.00;101497.56;4997065;28;20042;-65
2022/11/06 00:11:59;;;;;;;11.60;3.78;;;;;;;10.47;81.84;101502.66;4991993;28;20025;-65
2022/11/06 00:14:24;;;;;;;7.72;3.45;;;;;;;10.49;81.78;101497.56;5003913;28;20062;-65
2022/11/06 00:16:49;;;;;;;11.68;4.10;;;;;;;10.47;81.77;101494.06;5001085;28;20031;-65
2022/11/06 00:19:15;;;;;;;9.10;3.95;;;;;;;10.46;81.93;101490.63;4999501;28;20392;-65
2022/11/06 00:21:41;;;;;;;10.82;3.90;;;;;;;10.44;81.86;101486.25;5000749;28;20397;-65
2022/11/06 00:24:08;;;;;;;10.13;4.05;;;;;;;10.46;81.88;101485.47;5001858;28;20073;-65
2022/11/06 00:26:34;;;;;;;11.35;3.58;;;;;;;10.41;82.20;101492.13;5004365;28;20022;-65
2022/11/06 00:29:01;;;;;;;9.43;4.05;;;;;;;10.44;82.10;101486.25;5005549;28;20030;-65
2022/11/06 00:31:28;;;;;;;7.97;3.60;;;;;;;10.43;81.86;101487.94;5002537;28;20484;-65
2022/11/06 00:33:55;;;;;;;8.05;3.47;;;;;;;10.38;82.01;101480.88;5000973;28;20516;-65
2022/11/06 00:36:22;;;;;;;9.98;3.80;;;;;;;10.41;82.23;101484.41;5003185;28;20362;-65
2022/11/06 00:38:51;;;;;;;8.65;3.45;;;;;;;10.42;82.08;101473.31;5001770;28;20498;-65
2022/11/06 00:41:17;;;;;;;;;;;;;;;10.57;81.63;101478.19;5001424;28;20046;-65
2022/11/06 00:43:47;;;;;;;11.02;3.47;;;;;;;10.43;82.08;101469.94;5004827;28;19976;-65
2022/11/06 00:46:13;;;;;;;11.02;3.67;;;;;;;10.43;82.39;101467.38;4986642;28;20022;-65
2022/11/06 00:48:40;;;;;;;8.15;3.40;;;;;;;10.40;82.26;101471.50;4972054;28;20037;-65
2022/11/06 00:51:11;;;;;;;14.57;3.63;;;;;;;10.45;82.27;101477.72;4997015;28;20045;-65
2022/11/06 00:53:37;;;;;;;11.52;3.38;;;;;;;10.37;82.14;101473.94;4996630;28;20041;-65
2022/11/06 00:56:14;;;;;;;8.75;3.15;;;;;;;10.42;82.35;101475.00;5003383;28;20041;-65
2022/11/06 00:58:40;;;;;;;9.27;2.95;;;;;;;10.36;82.21;101478.22;4997542;28;20802;-65
2022/11/06 01:01:22;;;;;;;8.88;3.00;;;;;;;10.38;82.01;101484.31;4990736;28;20179;-65
2022/11/06 01:03:53;;;;;;;8.48;3.08;;;;;;;10.32;82.30;101481.50;4994636;28;20050;-65
2022/11/06 01:06:21;;;;;;;9.88;3.00;;;;;;;10.34;82.12;101477.28;4995545;28;20025;-65
2022/11/06 01:08:49;;;;;;;7.60;2.90;;;;;;;10.33;82.09;101478.13;4991768;28;20034;-65
2022/11/06 01:11:18;;;;;;;7.93;3.00;;;;;;;10.35;82.03;101478.16;4999655;28;20029;-65
2022/11/06 01:13:44;;;;;;;8.15;2.90;;;;;;;10.31;82.10;101473.72;5004899;28;20481;-65
2022/11/06 01:16:13;;;;;;;10.60;3.03;;;;;;;10.33;82.19;101477.25;5000289;28;20069;-65
2022/11/06 01:18:40;;;;;;;9.45;2.70;;;;;;;10.33;82.05;101472.97;4999733;28;20046;-65
2022/11/06 01:21:09;;;;;;;7.55;2.92;;;;;;;10.32;82.04;101470.34;5004248;28;20083;-65
2022/11/06 01:23:34;;;;;;;8.68;3.03;;;;;;;10.30;81.83;101461.69;5009081;28;20396;-65
2022/11/06 01:26:05;;;;;;;10.48;2.88;;;;;;;10.31;82.32;101460.88;5002769;28;20488;-65
2022/11/06 01:28:31;;;;;;;7.40;2.72;;;;;;;10.30;82.27;101461.69;4986412;28;20042;-65
2022/11/06 01:31:02;;;;;;;6.72;2.67;;;;;;;10.29;82.18;101450.53;5007175;28;20030;-65
2022/11/06 01:33:27;;;;;;;6.85;2.50;;;;;;;10.29;82.23;101444.50;4990729;28;20113;-65
2022/11/06 01:35:53;;;;;;;10.18;2.90;;;;;;;10.26;82.84;101440.16;5003757;28;20129;-65
2022/11/06 01:38:18;;;;;;;10.85;2.90;;;;;;;10.24;82.08;101438.31;5005558;28;20080;-65
2022/11/06 01:40:46;;;;;;;9.13;2.90;;;;;;;10.27;82.60;101441.03;5007127;28;20135;-65
2022/11/06 01:43:17;;;;;;;10.30;3.08;;;;;;;10.28;82.74;101435.94;5004924;28;20061;-65
2022/11/06 01:45:46;;;;;;;13.25;3.28;;;;;;;10.24;82.71;101439.19;5009842;28;20026;-65
2022/11/06 01:48:13;;;;;;;12.32;3.00;;;;;;;10.27;82.77;101441.03;4997772;28;20045;-65
2022/11/06 01:50:41;;;;;;;10.95;2.80;;;;;;;10.24;82.95;101433.19;5002650;28;20030;-65
2022/11/06 01:53:07;;;;;;;8.00;2.75;;;;;;;10.25;82.64;101437.50;5002178;28;20058;-65
2022/11/06 01:55:38;;;;;;;8.70;2.60;;;;;;;10.29;82.80;101434.22;5000813;28;20038;-65
2022/11/06 01:58:06;;;;;;;11.23;2.65;;;;;;;10.26;83.02;101429.00;5002415;28;20117;-65
2022/11/06 02:00:33;;;;;;;9.05;2.75;;;;;;;10.28;82.94;101437.63;5004890;28;20035;-65
2022/11/06 02:03:00;;;;;;;10.32;2.75;;;;;;;10.26;83.16;101427.28;5000570;28;20037;-64
2022/11/06 02:05:25;;;;;;;8.63;2.40;;;;;;;10.30;82.85;101429.16;5005930;28;20037;-65
2022/11/06 02:07:52;;;;;;;5.95;2.33;;;;;;;10.29;83.02;101427.41;5002586;28;20030;-65
2022/11/06 02:10:17;;;;;;;9.40;2.65;;;;;;;10.27;83.13;101425.59;5006262;28;20092;-65
2022/11/06 02:13:01;;;;;;;8.80;2.40;;;;;;;10.31;83.16;101428.31;5003521;28;20030;-65
2022/11/06 02:15:53;;;;;;;9.23;2.40;;;;;;;10.33;82.81;101418.13;5004690;28;20033;-65
2022/11/06 02:18:24;;;;;;;8.95;2.25;;;;;;;10.32;82.81;101424.09;5003557;28;20030;-65
2022/11/06 02:21:09;;;;;;;8.07;2.08;;;;;;;10.36;82.88;101415.66;5002141;28;20026;-65
2022/11/06 02:23:49;;;;;;;11.95;2.63;;;;;;;10.35;82.83;101411.34;5006611;28;20030;-65
2022/11/06 02:26:29;;;;;;;10.13;2.35;;;;;;;10.32;83.15;101404.41;5009261;28;20699;-65
2022/11/06 02:29:09;;;;;;;8.45;2.25;;;;;;;10.34;82.94;101394.16;5004251;28;20153;-65
2022/11/06 02:31:40;;;;;;;7.68;2.25;;;;;;;10.28;83.29;101391.38;5004085;28;20029;-65
2022/11/06 02:34:11;;;;;;;10.52;2.60;;;;;;;10.31;83.16;101401.75;5004769;28;20429;-65
2022/11/06 02:36:42;;;;;;;7.63;2.20;;;;;;;10.30;83.13;101390.59;5000930;28;20033;-65
2022/11/06 02:39:13;;;;;;;7.47;2.25;;;;;;;10.32;83.28;101390.66;4995469;28;20105;-65
2022/11/06 02:41:43;;;;;;;8.30;2.10;;;;;;;10.31;83.28;101387.19;5000125;28;20049;-65
2022/11/06 02:44:13;;;;;;;7.55;2.55;;;;;;;10.34;83.47;101391.59;4998857;28;20057;-65
2022/11/06 02:46:53;;;;;;;8.15;2.45;;;;;;;10.34;83.20;101381.31;5002368;28;20046;-65
2022/11/06 02:49:31;;;;;;;7.10;2.47;;;;;;;10.35;83.25;101383.06;4995767;28;20044;-65
2022/11/06 02:52:04;;;;;;;6.57;2.13;;;;;;;10.35;83.01;101385.63;5004069;28;20041;-66
2022/11/06 02:54:33;;;;;;;8.98;2.30;;;;;;;10.37;83.26;101386.53;4998508;28;20037;-65
2022/11/06 02:57:03;;;;;;;8.20;2.20;;;;;;;10.36;83.01;101385.66;5002165;28;20029;-65
2022/11/06 02:59:43;;;;;;;6.82;2.00;;;;;;;10.37;83.05;101390.00;5010035;28;20121;-65
2022/11/06 03:02:16;;;;;;;8.52;2.28;;;;;;;10.36;82.99;101387.38;4996353;28;20395;-65
2022/11/06 03:04:49;;;;;;;8.90;2.40;;;;;;;10.36;83.15;101389.94;5000812;28;20551;-65
2022/11/06 03:07:27;;;;;;;8.25;2.30;;;;;;;10.34;83.10;101392.47;5001817;28;20096;-65
2022/11/06 03:09:53;;;;;;;8.13;2.38;;;;;;;10.35;82.92;101393.34;5007581;28;20056;-65
2022/11/06 03:12:28;;;;;;;6.70;1.95;;;;;;;10.38;82.85;101404.63;5003641;28;20061;-65
2022/11/06 03:15:42;;;;;;;7.90;2.30;;;;;;;10.43;83.01;101405.69;5006479;28;20019;-65
2022/11/06 03:18:54;;;;;;;9.82;2.20;;;;;;;10.39;83.44;101411.50;4982500;28;20053;-65
2022/11/06 03:21:37;;;;;;;7.75;2.17;;;;;;;10.38;83.21;101393.47;4992179;28;20038;-65
2022/11/06 03:24:11;;;;;;;10.40;2.47;;;;;;;10.37;83.06;101387.41;5004722;28;20122;-65
2022/11/06 03:26:42;;;;;;;9.35;2.38;;;;;;;10.36;83.32;101377.97;4999886;28;20019;-65
2022/11/06 03:29:18;;;;;;;10.82;2.30;;;;;;;10.39;83.14;101377.22;5004568;28;20045;-65
2022/11/06 03:31:50;;;;;;;8.38;2.33;;;;;;;10.33;83.35;101359.88;5006522;28;20720;-65
2022/11/06 03:34:27;;;;;;;12.43;2.65;;;;;;;10.35;83.55;101363.38;4994350;28;20393;-65
2022/11/06 03:37:17;;;;;;;9.82;2.78;;;;;;;10.34;83.47;101360.75;4994876;28;20061;-65
2022/11/06 03:39:50;;;;;;;7.00;1.85;;;;;;;10.34;83.80;101353.91;4979993;28;20041;-65
2022/11/06 03:42:21;;;;;;;7.28;2.08;;;;;;;10.34;83.72;101353.03;5001938;28;20049;-65
2022/11/06 03:44:51;;;;;;;8.05;2.30;;;;;;;10.33;83.56;101348.72;4983889;28;20037;-65
2022/11/06 03:47:28;;;;;;;7.25;2.10;;;;;;;10.32;83.72;101352.97;5000137;28;20101;-65
2022/11/06 03:50:23;;;;;;;11.63;2.22;;;;;;;10.35;83.71;101353.09;5000891;28;20034;-65
2022/11/06 03:53:00;;;;;;;7.80;2.08;;;;;;;10.33;83.89;101330.72;5004547;28;20026;-65
2022/11/06 03:55:34;;;;;;;10.25;2.50;;;;;;;10.32;83.96;101328.97;5001745;28;20036;-65
2022/11/06 03:58:08;;;;;;;9.68;2.63;;;;;;;10.33;84.13;101328.16;4998866;28;20129;-65
2022/11/06 04:00:35;;;;;;;6.63;2.25;;;;;;;10.32;83.94;101324.72;5002432;28;20037;-65
2022/11/06 04:03:10;;;;;;;7.65;1.98;;;;;;;10.33;83.85;101326.44;5004614;28;20041;-65
2022/11/06 04:05:50;;;;;;;8.07;2.25;;;;;;;10.32;84.02;101319.56;5002656;28;20017;-65
2022/11/06 04:13:57;;;;;;;10.05;2.35;;;;;;;10.34;84.08;101327.31;5004536;28;20117;-65
2022/11/06 04:16:25;;;;;;;9.07;2.13;;;;;;;10.33;84.05;101329.03;4998676;28;20219;-65
2022/11/06 04:18:50;;;;;;;7.85;1.90;;;;;;;10.34;83.86;101322.19;4998461;28;20030;-65
2022/11/06 04:21:29;;;;;;;8.15;2.30;;;;;;;10.35;84.01;101318.78;5000297;28;20032;-65
2022/11/06 04:27:00;;;;;;;9.68;2.10;;;;;;;10.35;84.37;101299.09;5001657;28;20061;-65
2022/11/06 04:29:47;;;;;;;8.88;2.10;;;;;;;10.32;84.54;101290.41;5002827;28;20507;-65
2022/11/06 04:32:28;;;;;;;8.93;2.42;;;;;;;10.37;84.51;101286.28;5003724;28;20045;-65
2022/11/06 04:35:06;;;;;;;6.47;2.05;;;;;;;10.34;84.81;101288.78;5000780;28;20545;-65
2022/11/06 04:37:43;;;;;;;9.65;2.00;;;;;;;10.33;84.62;101282.75;4997656;28;20310;-65
2022/11/06 04:40:13;;;;;;;11.30;2.25;;;;;;;10.35;84.54;101291.38;4998011;28;20108;-65
2022/11/06 04:42:46;;;;;;;7.80;2.15;;;;;;;10.37;84.28;101279.44;5000478;28;20068;-65
2022/11/06 04:45:24;;;;;;;8.52;2.28;;;;;;;10.35;84.55;101285.38;5001429;28;20042;-65
2022/11/06 04:47:52;;;;;;;4.77;1.93;;;;;;;10.33;84.36;101279.31;4983509;28;20026;-65
2022/11/06 04:50:19;;;;;;;6.90;2.20;;;;;;;10.32;84.53;101285.28;4999480;28;20038;-65
2022/11/06 04:52:46;;;;;;;8.82;2.03;;;;;;;10.32;84.49;101272.44;4999119;28;20164;-65
2022/11/06 04:55:12;;;;;;;4.55;1.88;;;;;;;10.28;84.57;101273.13;5000640;28;20022;-65
2022/11/06 04:57:37;;;;;;;9.40;2.33;;;;;;;10.29;84.54;101269.72;4997664;28;20053;-65
2022/11/06 05:00:03;;;;;;;6.82;2.03;;;;;;;10.21;84.50;101269.44;4976788;28;20475;-65
2022/11/06 05:02:28;;;;;;;5.78;2.10;;;;;;;10.23;84.76;101272.97;4982969;28;20042;-65
2022/11/06 05:04:54;;;;;;;11.60;2.08;;;;;;;10.24;84.70;101273.81;4998802;28;20041;-65
2022/11/06 05:07:19;;;;;;;8.23;2.30;;;;;;;10.26;84.73;101270.50;5000313;28;20050;-65
2022/11/06 05:09:44;;;;;;;7.53;2.10;;;;;;;10.25;84.88;101263.59;5005413;28;20033;-65
2022/11/06 05:12:10;;;;;;;9.20;2.28;;;;;;;10.24;84.99;101266.13;4999793;28;20046;-65
2022/11/06 05:14:36;;;;;;;9.25;1.98;;;;;;;10.24;84.97;101269.56;5004057;28;20064;-65
2022/11/06 05:17:01;;;;;;;6.05;1.92;;;;;;;10.24;84.85;101263.53;5003392;28;20038;-65
2022/11/06 05:19:26;;;;;;;8.30;2.40;;;;;;;10.24;85.11;101256.72;5002120;28;20041;-65
2022/11/06 05:24:36;;;;;;;7.13;2.15;;;;;;;10.21;84.98;101254.88;5006218;28;20092;-65
2022/11/06 05:27:01;;;;;;;8.48;1.95;;;;;;;10.18;85.38;101259.91;5004493;28;20034;-65
2022/11/06 05:29:26;;;;;;;6.32;2.00;;;;;;;10.18;85.41;101257.31;5000538;28;20036;-65
2022/11/06 05:31:52;;;;;;;9.18;2.08;;;;;;;10.21;85.21;101265.16;5004473;28;20044;-65
2022/11/06 05:34:17;;;;;;;8.35;1.98;;;;;;;10.19;85.52;101260.78;5005007;28;20062;-65
2022/11/06 05:36:43;;;;;;;12.35;2.30;;;;;;;10.18;85.56;101252.19;5003656;28;20030;-65
2022/11/06 05:39:09;;;;;;;5.38;1.80;;;;;;;10.18;85.37;101252.19;5004787;28;20030;-65
2022/11/06 05:41:34;;;;;;;8.27;2.00;;;;;;;10.17;85.61;101250.44;5005045;28;20021;-65
2022/11/06 05:43:59;;;;;;;5.63;1.77;;;;;;;10.19;85.65;101253.97;5007732;28;20471;-65
2022/11/06 05:46:25;;;;;;;7.55;1.92;;;;;;;10.18;85.58;101248.75;5001761;28;20499;-65
2022/11/06 05:48:50;;;;;;;6.47;2.13;;;;;;;10.16;85.93;101247.84;5010079;28;20034;-65
2022/11/06 05:51:16;;;;;;;6.43;2.00;;;;;;;10.16;86.04;101241.00;5004370;28;20034;-65
2022/11/06 05:53:41;;;;;;;10.48;2.08;;;;;;;10.18;86.13;101239.34;5008580;28;20022;-65
2022/11/06 05:56:07;;;;;;;7.18;1.90;;;;;;;10.15;85.93;101235.81;5004107;28;20034;-65
2022/11/06 05:58:32;;;;;;;6.75;2.08;;;;;;;10.13;85.98;101228.06;4996008;28;20418;-65
2022/11/06 06:00:58;;;;;;;7.13;1.95;;;;;;;10.14;86.29;101240.06;5007772;28;20038;-65
2022/11/06 06:03:24;;;;;;;4.88;1.95;;;;;;;10.12;86.06;101225.41;5003933;28;20038;-65
2022/11/06 06:05:50;;;;;;;10.68;2.10;;;;;;;10.13;86.20;101214.28;4993605;28;20435;-65
2022/11/06 06:08:16;;;;;;;10.68;2.55;;;;;;;10.13;86.27;101222.91;5005193;28;20030;-65
2022/11/06 06:10:46;;;;;;;7.55;2.17;;;;;;;10.15;86.40;101228.97;5004084;28;20034;-65
2022/11/06 06:13:12;;;;;;;6.60;2.08;;;;;;;10.15;86.72;101223.84;5011600;28;20034;-65
2022/11/06 06:15:39;;;;;;;9.23;2.15;;;;;;;10.15;86.31;101226.41;5001912;28;20038;-65
2022/11/06 06:18:05;;;;;;;9.13;2.20;;;;;;;10.13;86.47;101222.00;5005691;28;20037;-65
2022/11/06 06:20:30;;;;;;;7.07;2.20;;;;;;;10.11;86.62;101214.25;5006432;28;20040;-65
2022/11/06 06:22:57;;;;;;;10.38;2.10;;;;;;;10.11;86.33;101209.13;5010195;28;20030;-65
2022/11/06 06:25:23;;;;;;;5.55;2.08;;;;;;;10.09;86.46;101213.34;5007928;28;20064;-65
2022/11/06 06:27:50;;;;;;;3.85;1.58;;;;;;;10.13;86.67;101204.94;5005262;28;20562;-66
2022/11/06 06:30:15;;;;;;;7.80;1.88;;;;;;;10.11;86.81;101214.25;5007240;28;20040;-65
2022/11/06 06:32:41;;;;;;;6.80;1.85;;;;;;;10.12;86.52;101223.72;5003949;28;20029;-65
2022/11/06 06:35:06;;;;;;;6.15;1.70;;;;;;;10.15;86.32;101215.25;5007948;28;20061;-66
2022/11/06 06:37:32;;;;;;;8.70;1.95;;;;;;;10.09;86.58;101210.75;5009166;28;20038;-66
2022/11/06 06:39:57;;;;;;;8.55;1.90;;;;;;;10.17;86.12;101222.19;5001619;28;20030;-65
2022/11/06 06:42:22;;;;;;;7.05;1.80;;;;;;;10.16;86.26;101224.69;5005961;28;20670;-65
2022/11/06 06:44:48;;;;;;;6.70;1.63;;;;;;;10.16;86.31;101227.28;5007266;28;20077;-65
2022/11/06 06:47:16;;;;;;;6.72;1.92;;;;;;;10.16;86.20;101225.56;4983545;28;20030;-65
2022/11/06 06:49:43;;;;;;;7.63;2.05;;;;;;;10.17;86.27;101229.00;5002331;28;20056;-65
2022/11/06 06:52:09;;;;;;;7.18;2.05;;;;;;;10.15;86.31;101221.25;5004817;28;20077;-65
2022/11/06 06:54:34;;;;;;;6.70;1.55;;;;;;;10.16;86.29;101212.72;5003477;28;20068;-65
2022/11/06 06:57:00;;;;;;;6.28;1.60;;;;;;;10.16;86.18;101201.56;5000612;28;20026;-65
2022/11/06 06:59:27;;;;;;;5.78;1.90;;;;;;;10.16;86.29;101204.16;4996611;28;20081;-65
2022/11/06 07:01:53;;;;;;;7.45;1.92;;;;;;;10.17;86.08;101201.63;5000281;28;20097;-65
2022/11/06 07:04:18;;;;;;;9.88;1.77;;;;;;;10.17;86.18;101205.88;4992504;28;20033;-65
2022/11/06 07:06:44;;;;;;;5.60;1.65;;;;;;;10.21;86.26;101210.31;5005707;28;20034;-65
2022/11/06 07:09:09;;;;;;;8.88;2.33;;;;;;;10.20;86.29;101203.44;4997115;28;20049;-65
2022/11/06 07:11:34;;;;;;;7.68;1.70;;;;;;;10.23;86.17;101207.78;5003677;28;20034;-65
2022/11/06 07:14:00;;;;;;;10.80;1.95;;;;;;;10.25;86.33;101207.06;4999610;28;20388;-65
2022/11/06 07:16:26;;;;;;;6.30;2.00;;;;;;;10.27;86.52;101200.28;5002008;28;20057;-65
2022/11/06 07:18:52;;;;;;;10.75;1.70;;;;;;;10.27;86.16;101195.16;4997535;28;20036;-65
2022/11/06 07:21:17;;;;;;;7.65;1.90;;;;;;;10.32;86.29;101197.88;5003477;28;20113;-65
2022/11/06 07:23:43;;;;;;;6.82;1.90;;;;;;;10.31;86.43;101191.84;5000573;28;20133;-65
2022/11/06 07:26:08;;;;;;;5.32;1.80;;;;;;;10.31;86.44;101194.41;5006539;28;20092;-65
2022/11/06 07:28:34;;;;;;;6.03;1.58;;;;;;;10.36;86.25;101194.56;5005540;28;20037;-65
2022/11/06 07:31:05;;;;;;;6.80;1.50;;;;;;;10.37;86.67;101197.19;5001799;28;20037;-65
2022/11/06 07:33:30;;;;;;;6.35;1.92;;;;;;;10.38;86.50;101198.09;5002540;28;20083;-65
2022/11/06 07:36:05;;;;;;;8.43;1.80;;;;;;;10.45;86.48;101203.50;4999609;28;20425;-65
2022/11/06 07:38:33;;;;;;;4.13;1.80;;;;;;;10.45;86.30;101197.47;5000068;28;20048;-65
2022/11/06 07:41:07;;;;;;;6.30;1.65;;;;;;;10.50;86.25;101192.50;5001725;28;20488;-65
2022/11/06 07:43:33;;;;;;;7.65;2.00;;;;;;;10.48;86.27;101189.84;5002240;28;20049;-65
2022/11/06 07:46:00;;;;;;;9.20;2.30;;;;;;;10.51;86.10;101205.41;5001032;28;20033;-65
2022/11/06 07:48:26;;;;;;;3.95;1.42;;;;;;;10.52;86.21;101189.13;5001480;28;20026;-66
2022/11/06 07:50:52;;;;;;;4.50;1.48;;;;;;;10.52;86.09;101180.56;4999372;28;20046;-66
2022/11/06 07:53:17;;;;;;;4.60;1.40;;;;;;;10.57;86.02;101182.47;4997327;28;20028;-65
2022/11/06 07:55:50;;;;;;;7.18;1.65;;;;;;;10.59;86.18;101183.38;4992610;28;20477;-65
2022/11/06 07:58:16;;;;;;;5.40;1.80;;;;;;;10.60;85.89;101179.09;4979033;28;20041;-65
2022/11/06 08:00:53;;;;;;;7.38;1.73;;;;;;;10.63;86.15;101181.78;4996898;28;20473;-65
2022/11/06 08:03:19;;;;;;;7.03;1.77;;;;;;;10.62;85.85;101177.47;5001340;28;20030;-65
2022/11/06 08:05:45;;;;;;;3.42;1.40;;;;;;;10.64;85.92;101166.41;4978427;28;20114;-65
2022/11/06 08:08:10;;;;;;;4.93;1.73;;;;;;;10.62;85.83;101172.34;5003146;28;20108;-65
2022/11/06 08:10:39;;;;;;;6.78;2.00;;;;;;;10.65;85.68;101182.69;4984848;28;20029;-65
2022/11/06 08:13:08;;;;;;;4.30;1.65;;;;;;;10.69;85.66;101185.44;4999289;28;20120;-66
2022/11/06 08:15:36;;;;;;;7.18;1.70;;;;;;;10.66;85.88;101180.16;4983473;28;20025;-66
2022/11/06 08:18:02;;;;;;;10.45;1.70;;;;;;;10.68;85.65;101173.41;5000107;28;20120;-66
2022/11/06 08:20:28;;;;;;;9.60;1.90;;;;;;;10.72;85.85;101185.50;4999191;28;20038;-66
2022/11/06 08:22:58;;;;;;;7.07;1.52;;;;;;;10.72;85.72;101172.66;5010989;28;20038;-65
2022/11/06 08:25:23;;;;;;;7.07;1.60;;;;;;;10.73;85.58;101174.41;4998998;28;20519;-65
2022/11/06 08:27:48;;;;;;;9.07;1.58;;;;;;;10.76;85.94;101176.22;5007732;28;20033;-65
2022/11/06 08:30:14;;;;;;;6.35;1.60;;;;;;;10.79;85.57;101160.00;4998576;28;20443;-65
2022/11/06 08:32:39;;;;;;;8.35;1.48;;;;;;;10.81;85.70;101158.34;4990269;28;20037;-65
2022/11/06 08:35:05;;;;;;;5.95;1.60;;;;;;;10.83;85.76;101157.56;5005880;28;20116;-65
2022/11/06 08:37:30;;;;;;;6.75;1.50;;;;;;;10.84;85.93;101151.59;4996559;28;20126;-65
2022/11/06 08:39:56;;;;;;;5.15;1.40;;;;;;;10.90;85.78;101140.63;4998142;28;20117;-65
2022/11/06 08:42:21;;;;;;;6.75;1.48;;;;;;;10.90;85.63;101140.63;5000715;28;20049;-66
2022/11/06 08:44:46;;;;;;;4.22;1.20;;;;;;;10.95;85.50;101142.50;5002299;28;20077;-65
2022/11/06 08:47:12;;;;;;;6.50;1.50;;;;;;;10.99;85.61;101140.94;5007261;28;20048;-66
2022/11/06 08:49:37;;;;;;;4.97;1.40;;;;;;;11.04;85.43;101141.91;4989590;28;20121;-65
2022/11/06 08:52:02;;;;;;;5.68;1.58;;;;;;;11.07;84.61;101136.88;4999946;28;20061;-65
2022/11/06 08:54:28;;;;;;;8.32;1.60;;;;;;;11.11;84.11;101133.56;5000830;28;20168;-65
2022/11/06 08:56:53;;;;;;;6.72;1.50;;;;;;;11.12;84.18;101135.31;4994442;28;20038;-66
2022/11/06 08:59:18;;;;;;;6.95;1.55;;;;;;;11.15;84.34;101135.41;4998035;28;20381;-66
2022/11/06 09:01:44;;;;;;;7.63;1.60;;;;;;;11.18;84.19;101134.63;4999191;28;20033;-65
2022/11/06 09:04:09;;;;;;;5.30;1.40;;;;;;;11.20;84.18;101127.81;5000679;28;20041;-65
2022/11/06 09:06:34;;;;;;;6.35;1.30;;;;;;;11.23;84.33;101123.66;5013346;28;20599;-66
2022/11/06 09:09:00;;;;;;;6.05;1.30;;;;;;;11.25;83.73;101127.13;5006215;28;20044;-66
2022/11/06 09:11:25;;;;;;;4.45;1.60;;;;;;;11.26;84.07;101110.84;5005933;28;20488;-65
2022/11/06 09:13:51;;;;;;;7.22;1.60;;;;;;;11.29;83.79;101102.38;5001968;28;20042;-65
2022/11/06 09:16:16;;;;;;;8.52;1.73;;;;;;;11.28;83.44;101103.16;5003429;28;20100;-65
2022/11/06 09:18:42;;;;;;;4.00;1.42;;;;;;;11.30;83.44;101098.09;5007591;28;20061;-65
2022/11/06 09:21:08;;;;;;;8.25;1.63;;;;;;;11.32;83.17;101086.13;4991734;28;20041;-65
2022/11/06 09:23:33;;;;;;;2.22;1.30;;;;;;;11.32;83.26;101083.53;5003543;28;20031;-65
2022/11/06 09:25:59;;;;;;;4.00;1.65;;;;;;;11.35;83.32;101086.22;5000681;28;20038;-65
2022/11/06 09:28:24;;;;;;;6.75;1.50;;;;;;;11.34;83.10;101080.16;5002927;28;20500;-65
2022/11/06 09:30:49;;;;;;;5.88;1.25;;;;;;;11.39;83.29;101072.59;5000404;28;20029;-65
2022/11/06 09:33:15;;;;;;;4.88;1.20;;;;;;;11.42;83.25;101068.41;5003890;28;20033;-65
2022/11/06 09:35:40;;;;;;;5.00;1.20;;;;;;;11.46;83.13;101074.50;4999714;28;20026;-65
2022/11/06 09:38:10;;;;;;;6.50;1.70;;;;;;;11.52;82.28;101072.94;4998817;28;20038;-65
2022/11/06 09:40:39;;;;;;;5.78;1.58;;;;;;;11.61;82.59;101074.06;5002279;28;20038;-65
2022/11/06 09:43:25;;;;;;;5.00;1.10;;;;;;;11.72;82.69;101068.38;5004563;28;20042;-64
2022/11/06 09:45:53;;;;;;;4.85;1.17;;;;;;;11.81;82.04;101073.78;5007152;28;20076;-64
2022/11/06 09:48:27;;;;;;;6.40;1.45;;;;;;;11.89;81.75;101070.53;5005133;28;20022;-65
2022/11/06 09:51:21;;;;;;;4.40;1.25;;;;;;;11.94;81.02;101062.06;4998743;28;20476;-65
2022/11/06 09:53:53;;;;;;;6.93;1.27;;;;;;;11.99;80.83;101073.38;4983985;28;20045;-64
2022/11/06 09:56:20;;;;;;;5.75;1.63;;;;;;;12.12;81.02;101056.53;5002162;28;20026;-64
2022/11/06 09:58:47;;;;;;;6.97;1.35;;;;;;;12.23;80.25;101070.56;5009894;28;20052;-65
2022/11/06 10:01:23;;;;;;;6.15;1.17;;;;;;;12.27;80.06;101062.06;4997311;28;20540;-64
2022/11/06 10:03:54;;;;;;;6.40;1.35;;;;;;;12.29;78.93;101055.22;5000127;28;20165;-64
2022/11/06 10:06:21;;;;;;;5.88;1.40;;;;;;;12.28;78.33;101063.81;5003527;28;20481;-64
2022/11/06 10:08:48;;;;;;;5.10;1.65;;;;;;;12.24;79.32;101049.09;4992635;28;20393;-64
2022/11/06 10:11:14;;;;;;;5.57;1.20;;;;;;;12.26;78.86;101057.75;5001591;28;20377;-64
2022/11/06 10:13:57;;;;;;;6.38;1.40;;;;;;;12.30;78.96;101059.53;5002037;28;20030;-64
2022/11/06 10:17:01;;;;;;;6.47;1.42;;;;;;;12.35;78.95;101047.63;5003308;28;20064;-64
2022/11/06 10:19:40;;;;;;;5.30;1.42;;;;;;;12.41;78.71;101036.59;4913752;29;20068;-64
2022/11/06 10:22:15;;;;;;;7.28;1.52;;;;;;;12.48;78.94;101037.59;4913004;29;20086;-64
2022/11/06 10:25:20;;;;;;;7.43;1.33;;;;;;;12.53;78.28;101044.63;4971645;28;20038;-65
2022/11/06 10:28:02;;;;;;;15.68;5.38;;;;;;;12.56;77.63;101030.94;4965457;28;20050;-64
2022/11/06 10:30:44;;;;;;;8.40;2.75;;;;;;;12.51;77.26;101032.53;5001555;28;20022;-65
2022/11/06 10:33:22;;;;;;;5.88;1.73;;;;;;;12.50;77.45;101034.25;4999284;28;20041;-65
2022/11/06 10:36:12;;;;;;;6.93;1.65;;;;;;;12.49;76.91;101034.19;5000827;28;20067;-65
2022/11/06 10:38:42;;;;;;;4.80;1.48;;;;;;;12.46;76.96;101036.72;4999582;28;20022;-65
2022/11/06 10:41:15;;;;;;;;;;;;;;;12.55;77.21;101026.59;5001425;28;20066;-65
2022/11/06 10:43:44;;;;;;;5.93;1.30;;;;;;;12.48;76.05;101020.41;5000852;28;19972;-65
2022/11/06 10:46:19;;;;;;;4.38;1.33;;;;;;;12.45;76.33;101016.91;5003210;28;20476;-65
2022/11/06 10:49:34;;;;;;;7.65;1.48;;;;;;;12.49;77.11;101013.56;5008182;28;20022;-66
2022/11/06 10:52:23;;;;;;;6.10;1.38;;;;;;;12.53;77.29;100994.75;4966001;28;20050;-66
2022/11/06 10:54:57;;;;;;;7.30;1.35;;;;;;;12.54;76.75;100997.34;5003999;28;20036;-65
2022/11/06 10:57:37;;;;;;;7.15;1.52;;;;;;;12.63;76.84;100988.97;4996837;28;20058;-66
2022/11/06 11:00:04;;;;;;;7.35;1.50;;;;;;;12.66;76.28;100977.81;4996885;28;20030;-65
2022/11/06 11:02:32;;;;;;;6.03;1.60;;;;;;;12.69;76.05;100996.81;5005322;28;20061;-65
2022/11/06 11:04:57;;;;;;;7.43;1.27;;;;;;;12.70;75.00;100979.63;5003180;28;20084;-65
2022/11/06 11:07:24;;;;;;;7.93;1.35;;;;;;;12.73;75.00;100977.97;5005669;28;20055;-65
2022/11/06 11:09:49;;;;;;;6.57;1.40;;;;;;;12.76;75.43;100974.59;5005793;28;20040;-66
2022/11/06 11:12:26;;;;;;;5.60;1.55;;;;;;;12.75;75.25;100968.56;4993355;28;20031;-65
2022/11/06 11:15:05;;;;;;;8.05;1.58;;;;;;;12.85;75.80;100967.03;4999166;28;20035;-65
2022/11/06 11:17:30;;;;;;;;;;;;;;;12.93;76.15;100968.09;5005954;28;20129;-65
2022/11/06 11:19:55;;;;;;;8.82;1.40;;;;;;;12.95;74.48;100962.94;5000171;28;20000;-65
2022/11/06 11:22:23;;;;;;;4.78;1.30;;;;;;;12.99;74.05;100964.75;4997199;28;20037;-65
2022/11/06 11:24:59;;;;;;;6.93;1.88;;;;;;;13.08;74.47;100964.91;5001501;28;20037;-65
2022/11/06 11:27:25;;;;;;;7.32;1.50;;;;;;;13.10;73.92;100961.53;5003276;28;20030;-65
2022/11/06 11:29:50;;;;;;;9.05;1.58;;;;;;;13.04;73.09;100960.53;5001797;28;20393;-65
2022/11/06 11:32:19;;;;;;;4.15;1.40;;;;;;;13.02;72.91;100954.47;4980944;28;20581;-65
2022/11/06 11:34:52;;;;;;;10.18;1.50;;;;;;;12.99;73.68;100946.69;4990483;28;20433;-65
2022/11/06 11:37:26;;;;;;;9.20;1.50;;;;;;;12.96;73.37;100934.56;4996311;28;20026;-65
2022/11/06 11:39:51;;;;;;;7.05;1.67;;;;;;;12.98;72.32;100944.91;5001216;28;20417;-65
2022/11/06 11:42:24;;;;;;;6.05;1.45;;;;;;;12.98;72.59;100932.00;5000941;28;20274;-65
2022/11/06 11:45:08;;;;;;;9.82;1.50;;;;;;;12.98;72.56;100939.75;5001743;28;20037;-65
2022/11/06 11:47:35;;;;;;;4.95;1.60;;;;;;;12.87;71.22;100930.13;5004087;28;20040;-65
2022/11/06 11:50:16;;;;;;;8.32;1.50;;;;;;;12.85;72.41;100931.78;5006406;28;20117;-65